Time;durP1;ratioP1;P1;durP2;ratioP2;P2;SDS_P1;SDS_P2;PMS_P1;PMS_P2;Temp;Humidity;BMP_temperature;BMP_pressure;BME280_temperature;BME280_humidity;BME280_pressure;Samples;Min_cycle;Max_cycle;Signal;HPM_P1;HPM_P2
2023/07/15 00:12:02;;;;;;;4.00;2.92;;;;;;;18.45;100.00;99941.31;7775134;22;20680;-96
2023/07/15 00:15:38;;;;;;;3.65;3.22;;;;;;;18.42;100.00;99944.31;7765956;22;20011;-96
2023/07/15 00:19:17;;;;;;;4.90;3.17;;;;;;;18.44;100.00;99940.50;7761955;23;20016;-96
2023/07/15 00:23:48;;;;;;;4.30;3.17;;;;;;;18.55;100.00;99935.75;7745582;23;20012;-96
2023/07/15 00:27:14;;;;;;;4.82;2.92;;;;;;;18.60;100.00;99930.75;7717680;22;20122;-96
2023/07/15 00:30:19;;;;;;;4.50;2.72;;;;;;;18.65;100.00;99923.94;7753228;22;20019;-96
2023/07/15 00:33:22;;;;;;;5.85;3.30;;;;;;;18.49;100.00;99918.97;7751332;22;20089;-96
2023/07/15 00:36:29;;;;;;;3.67;2.90;;;;;;;18.57;100.00;99910.97;7728111;22;20058;-95
2023/07/15 00:39:31;;;;;;;4.07;2.90;;;;;;;18.59;100.00;99911.59;7726840;22;20453;-96
2023/07/15 00:43:11;;;;;;;3.58;2.85;;;;;;;18.63;100.00;99907.63;7752885;22;20437;-96
2023/07/15 00:46:39;;;;;;;5.32;2.83;;;;;;;18.70;100.00;99910.28;7751168;22;20028;-96
2023/07/15 00:49:43;;;;;;;5.35;3.03;;;;;;;18.77;100.00;99908.56;7752109;22;20023;-96
2023/07/15 00:52:45;;;;;;;4.80;3.03;;;;;;;18.81;100.00;99916.88;7726746;22;20024;-96
2023/07/15 00:55:48;;;;;;;5.07;2.80;;;;;;;18.83;100.00;99899.09;7751831;22;20039;-95
2023/07/15 00:58:50;;;;;;;3.28;2.95;;;;;;;18.88;100.00;99899.34;7779235;22;20087;-96
2023/07/15 01:01:53;;;;;;;5.55;2.80;;;;;;;18.87;100.00;99900.34;7778002;22;20465;-96
2023/07/15 01:05:10;;;;;;;4.55;2.88;;;;;;;18.86;100.00;99898.75;7778664;22;20348;-96
2023/07/15 01:08:12;;;;;;;5.27;3.10;;;;;;;18.83;100.00;99889.44;7775265;22;20034;-96
2023/07/15 01:11:16;;;;;;;6.07;3.30;;;;;;;18.80;100.00;99881.94;7749392;22;20020;-96
2023/07/15 01:14:19;;;;;;;7.53;2.70;;;;;;;18.75;100.00;99873.81;7750925;22;20050;-96
2023/07/15 01:17:22;;;;;;;6.60;2.88;;;;;;;18.72;100.00;99869.75;7778876;22;20519;-95
2023/07/15 01:20:25;;;;;;;5.03;3.00;;;;;;;18.71;100.00;99872.59;7778620;22;20614;-96
2023/07/15 01:23:33;;;;;;;5.28;2.60;;;;;;;18.70;100.00;99874.38;7750996;22;20024;-95
2023/07/15 01:26:36;;;;;;;5.82;3.05;;;;;;;18.70;100.00;99868.31;7777977;22;20089;-96
2023/07/15 01:29:39;;;;;;;6.03;2.88;;;;;;;18.68;100.00;99865.91;7779099;22;20027;-95
2023/07/15 01:32:42;;;;;;;5.00;2.55;;;;;;;18.64;100.00;99858.63;7777117;22;20020;-96
2023/07/15 01:35:52;;;;;;;6.15;2.38;;;;;;;18.64;100.00;99854.19;7751792;22;20114;-96
2023/07/15 01:38:53;;;;;;;4.75;2.70;;;;;;;18.66;100.00;99861.84;7750991;22;20031;-96
2023/07/15 01:41:59;;;;;;;7.00;3.08;;;;;;;18.66;100.00;99852.19;7751351;22;20015;-96
2023/07/15 01:45:03;;;;;;;6.70;2.80;;;;;;;18.66;100.00;99848.75;7778697;22;20070;-96
2023/07/15 01:48:07;;;;;;;7.55;2.83;;;;;;;18.64;100.00;99848.94;7778701;22;20027;-95
2023/07/15 01:51:09;;;;;;;4.40;2.90;;;;;;;18.65;100.00;99840.06;7751318;22;20344;-96
2023/07/15 01:54:12;;;;;;;4.63;2.55;;;;;;;18.67;100.00;99837.25;7750938;22;20523;-96
2023/07/15 01:57:14;;;;;;;4.47;2.70;;;;;;;18.72;100.00;99845.34;7778951;22;20748;-96
2023/07/15 02:00:16;;;;;;;4.80;2.42;;;;;;;18.73;100.00;99829.44;7725725;22;20647;-96
2023/07/15 02:03:19;;;;;;;4.70;2.50;;;;;;;18.75;100.00;99829.22;7751101;22;20069;-96
2023/07/15 02:06:22;;;;;;;4.28;2.50;;;;;;;18.75;100.00;99824.00;7750459;22;20119;-96
2023/07/15 02:09:34;;;;;;;4.55;2.70;;;;;;;18.81;100.00;99822.47;7727398;22;20023;-95
2023/07/15 02:12:36;;;;;;;3.72;2.70;;;;;;;18.74;100.00;99825.00;7749220;22;20023;-96
2023/07/15 02:15:38;;;;;;;8.20;2.42;;;;;;;18.17;100.00;99816.28;7778014;22;20514;-95
2023/07/15 02:18:41;;;;;;;5.45;2.83;;;;;;;17.97;100.00;99800.41;7749559;22;20074;-96
2023/07/15 02:21:43;;;;;;;6.28;2.90;;;;;;;17.93;100.00;99796.53;7725173;22;20024;-96
2023/07/15 02:24:47;;;;;;;5.30;2.80;;;;;;;18.02;100.00;99795.41;7750753;22;20436;-96
2023/07/15 02:27:49;;;;;;;4.35;2.58;;;;;;;18.46;100.00;99796.19;7749928;22;20334;-95
2023/07/15 02:30:51;;;;;;;3.85;3.00;;;;;;;18.49;100.00;99790.56;7776944;22;20020;-96
2023/07/15 02:33:54;;;;;;;5.43;2.70;;;;;;;18.49;100.00;99790.56;7750498;22;20024;-96
2023/07/15 02:36:57;;;;;;;5.30;2.85;;;;;;;18.49;100.00;99788.75;7749862;22;20248;-96
2023/07/15 02:40:00;;;;;;;4.13;2.60;;;;;;;18.43;100.00;99783.44;7776873;22;20020;-96
2023/07/15 02:43:02;;;;;;;4.43;2.65;;;;;;;18.35;100.00;99786.22;7749960;22;20027;-96
2023/07/15 02:46:06;;;;;;;3.67;2.60;;;;;;;18.26;100.00;99783.72;7750294;22;20027;-95
2023/07/15 02:49:09;;;;;;;4.78;2.63;;;;;;;18.20;100.00;99776.63;7777688;22;20501;-95
2023/07/15 02:52:12;;;;;;;4.72;2.67;;;;;;;18.19;100.00;99779.44;7725939;22;20373;-96
2023/07/15 02:55:14;;;;;;;3.45;2.53;;;;;;;18.19;100.00;99777.63;7775703;22;20125;-96
2023/07/15 02:58:18;;;;;;;4.18;2.40;;;;;;;18.14;100.00;99774.78;7751112;22;20359;-95
2023/07/15 03:01:21;;;;;;;7.10;2.83;;;;;;;18.13;100.00;99772.31;7776708;22;20342;-96
2023/07/15 03:04:23;;;;;;;4.38;2.80;;;;;;;18.10;100.00;99770.09;7724539;22;20521;-96
2023/07/15 03:07:26;;;;;;;7.45;2.83;;;;;;;18.11;100.00;99766.47;7724957;22;20825;-95
2023/07/15 03:10:32;;;;;;;5.70;3.10;;;;;;;18.11;100.00;99758.59;7724933;22;20030;-96
2023/07/15 03:13:35;;;;;;;5.70;2.83;;;;;;;18.09;100.00;99766.66;7725287;22;20043;-96
2023/07/15 03:16:37;;;;;;;6.10;2.38;;;;;;;18.08;100.00;99768.44;7778145;22;20023;-96
2023/07/15 03:19:39;;;;;;;3.90;2.60;;;;;;;18.10;100.00;99757.00;7750786;22;20438;-96
2023/07/15 03:22:42;;;;;;;4.70;2.50;;;;;;;18.10;100.00;99759.63;7750199;22;20389;-95
2023/07/15 03:25:45;;;;;;;3.33;2.53;;;;;;;18.11;100.00;99764.66;7777850;22;20035;-95
2023/07/15 03:28:47;;;;;;;3.90;2.83;;;;;;;18.12;100.00;99765.47;7777928;22;20016;-95
2023/07/15 03:31:50;;;;;;;5.22;2.75;;;;;;;18.16;100.00;99759.69;7750626;22;20011;-95
2023/07/15 03:34:52;;;;;;;4.07;2.83;;;;;;;18.18;100.00;99764.72;7750537;22;20019;-96
2023/07/15 03:37:54;;;;;;;3.83;2.30;;;;;;;18.15;100.00;99767.72;7777699;22;20043;-96
2023/07/15 03:40:58;;;;;;;5.13;2.55;;;;;;;18.17;100.00;99766.53;7750164;22;20122;-96
2023/07/15 03:44:00;;;;;;;4.70;2.70;;;;;;;18.13;100.00;99767.88;7778761;22;20377;-96
2023/07/15 03:47:02;;;;;;;3.90;2.58;;;;;;;18.13;100.00;99767.09;7780391;22;20102;-96
2023/07/15 03:50:07;;;;;;;6.28;3.28;;;;;;;18.11;100.00;99769.91;7753160;22;20027;-96
2023/07/15 03:53:10;;;;;;;6.28;2.88;;;;;;;18.06;100.00;99762.63;7780944;22;20016;-95
2023/07/15 03:56:14;;;;;;;4.85;2.47;;;;;;;18.10;100.00;99770.91;7780459;22;20524;-95
2023/07/15 03:59:16;;;;;;;5.72;2.67;;;;;;;18.07;100.00;99771.28;7780071;22;20020;-96
2023/07/15 04:02:18;;;;;;;4.00;2.75;;;;;;;18.04;100.00;99769.84;7752430;22;20016;-96
2023/07/15 04:05:21;;;;;;;5.53;2.95;;;;;;;18.09;100.00;99764.03;7779697;22;20027;-96
2023/07/15 04:08:23;;;;;;;3.80;2.80;;;;;;;18.13;100.00;99767.88;7779442;22;20283;-96
2023/07/15 04:11:30;;;;;;;4.13;2.47;;;;;;;18.18;100.00;99762.09;7751712;22;20015;-96
2023/07/15 04:14:36;;;;;;;3.88;2.78;;;;;;;18.25;100.00;99768.19;7779624;22;20349;-96
2023/07/15 04:17:38;;;;;;;5.55;2.80;;;;;;;18.32;100.00;99771.69;7779827;22;20020;-95
2023/07/15 04:20:41;;;;;;;3.30;2.40;;;;;;;18.32;100.00;99768.25;7780094;22;20397;-96
2023/07/15 04:23:43;;;;;;;4.75;2.75;;;;;;;18.27;100.00;99766.19;7779786;22;20047;-96
2023/07/15 04:26:46;;;;;;;3.50;2.97;;;;;;;18.24;100.00;99771.81;7726840;22;20054;-96
2023/07/15 04:29:48;;;;;;;5.13;2.28;;;;;;;18.20;100.00;99771.38;7779382;22;20322;-95
2023/07/15 04:32:51;;;;;;;2.92;2.45;;;;;;;18.20;100.00;99776.63;7746183;22;20027;-96
2023/07/15 04:35:53;;;;;;;3.10;2.53;;;;;;;18.20;100.00;99767.97;7779784;22;20026;-96
2023/07/15 04:38:55;;;;;;;4.65;2.95;;;;;;;18.24;100.00;99767.38;7779008;22;20464;-96
2023/07/15 04:42:01;;;;;;;6.10;2.63;;;;;;;18.35;100.00;99770.50;7726313;22;20244;-96
2023/07/15 04:45:07;;;;;;;4.45;2.28;;;;;;;18.44;100.00;99764.09;7728174;22;20023;-95
2023/07/15 04:48:09;;;;;;;3.80;2.35;;;;;;;18.48;100.00;99766.16;7779488;22;20026;-96
2023/07/15 04:51:12;;;;;;;4.88;2.72;;;;;;;18.50;100.00;99766.75;7752041;22;20016;-96
2023/07/15 04:54:14;;;;;;;4.57;2.67;;;;;;;18.51;100.00;99771.00;7751907;22;20054;-96
2023/07/15 04:57:19;;;;;;;4.35;3.00;;;;;;;18.56;100.00;99775.69;7779440;22;20023;-96
2023/07/15 05:00:21;;;;;;;6.50;2.67;;;;;;;18.58;100.00;99778.91;7779778;22;20026;-95
2023/07/15 05:03:23;;;;;;;5.72;2.53;;;;;;;18.62;100.00;99771.47;7780107;22;20019;-96
2023/07/15 05:06:27;;;;;;;4.57;2.60;;;;;;;18.69;100.00;99767.91;7752155;22;20023;-95
2023/07/15 05:09:31;;;;;;;4.13;2.67;;;;;;;18.81;100.00;99770.81;7779047;22;20030;-95
2023/07/15 05:12:34;;;;;;;3.60;2.13;;;;;;;18.88;100.00;99766.44;7779139;22;20019;-96
2023/07/15 05:15:37;;;;;;;4.63;2.67;;;;;;;18.97;100.00;99787.25;7779534;22;20182;-95
2023/07/15 05:18:40;;;;;;;3.30;2.80;;;;;;;19.01;100.00;99781.41;7779070;22;20634;-96
2023/07/15 05:21:42;;;;;;;3.78;2.80;;;;;;;19.07;100.00;99779.81;7726199;22;20024;-95
2023/07/15 05:24:45;;;;;;;4.05;2.78;;;;;;;19.15;100.00;99775.22;7780472;22;20024;-96
2023/07/15 05:27:47;;;;;;;4.65;2.70;;;;;;;19.24;100.00;99772.44;7781456;22;20096;-96
2023/07/15 05:30:49;;;;;;;4.38;2.75;;;;;;;19.30;100.00;99775.09;7753924;22;20015;-95
2023/07/15 05:33:51;;;;;;;4.47;2.80;;;;;;;19.36;100.00;99781.34;7781475;22;20016;-95
2023/07/15 05:36:53;;;;;;;5.65;2.60;;;;;;;19.40;100.00;99773.88;7753192;22;20096;-95
2023/07/15 05:39:56;;;;;;;3.42;2.58;;;;;;;19.41;100.00;99780.78;7781841;22;20047;-96
2023/07/15 05:42:59;;;;;;;4.18;2.30;;;;;;;19.37;100.00;99775.91;7780455;22;20087;-95
2023/07/15 05:46:02;;;;;;;3.05;2.30;;;;;;;19.35;100.00;99782.34;7780522;22;20031;-96
2023/07/15 05:49:04;;;;;;;6.55;3.03;;;;;;;19.37;100.00;99782.97;7728036;22;20027;-96
2023/07/15 05:52:07;;;;;;;3.05;2.60;;;;;;;19.22;100.00;99785.72;7753409;22;20416;-96
2023/07/15 05:55:10;;;;;;;2.67;2.28;;;;;;;19.22;100.00;99790.19;7753909;22;20027;-96
2023/07/15 05:58:13;;;;;;;3.80;2.92;;;;;;;19.33;100.00;99784.38;7753573;22;20031;-95
2023/07/15 06:01:15;;;;;;;3.92;2.70;;;;;;;19.47;100.00;99788.66;7752899;22;20453;-95
2023/07/15 06:04:20;;;;;;;5.53;3.53;;;;;;;19.61;100.00;99788.69;7727839;22;20592;-96
2023/07/15 06:07:22;;;;;;;3.40;2.53;;;;;;;19.37;100.00;99791.63;7753508;22;20429;-96
2023/07/15 06:10:29;;;;;;;6.22;4.18;;;;;;;19.12;100.00;99787.91;7752943;22;20016;-96
2023/07/15 06:13:34;;;;;;;4.88;2.55;;;;;;;19.26;100.00;99788.78;7753549;22;20357;-95
2023/07/15 06:16:37;;;;;;;4.95;2.85;;;;;;;19.37;100.00;99780.34;7753013;22;20095;-96
2023/07/15 06:19:40;;;;;;;3.63;2.38;;;;;;;19.57;100.00;99775.94;7753671;22;20043;-95
2023/07/15 06:22:42;;;;;;;2.30;2.10;;;;;;;19.72;100.00;99775.81;7752700;22;20508;-96
2023/07/15 06:25:45;;;;;;;2.38;2.15;;;;;;;19.85;100.00;99777.66;7779755;22;20101;-96
2023/07/15 06:28:47;;;;;;;3.13;2.50;;;;;;;19.97;100.00;99776.06;7753772;22;20350;-96
2023/07/15 06:31:50;;;;;;;3.10;2.30;;;;;;;20.09;100.00;99770.19;7752961;22;20015;-96
2023/07/15 06:34:52;;;;;;;2.58;2.33;;;;;;;20.23;100.00;99770.00;7780624;22;20031;-96
2023/07/15 06:37:54;;;;;;;5.88;2.20;;;;;;;20.32;100.00;99761.91;7779194;22;20030;-96
2023/07/15 06:40:56;;;;;;;5.22;2.35;;;;;;;20.44;100.00;99768.16;7753046;22;20350;-96
2023/07/15 06:43:59;;;;;;;3.00;2.45;;;;;;;20.53;100.00;99772.19;7779982;22;20094;-96
2023/07/15 06:47:01;;;;;;;4.18;2.13;;;;;;;20.60;100.00;99764.34;7779993;22;20023;-96
2023/07/15 06:50:04;;;;;;;4.35;2.45;;;;;;;20.69;100.00;99768.34;7753160;22;20019;-96
2023/07/15 06:53:06;;;;;;;5.22;2.28;;;;;;;20.76;100.00;99761.25;7780521;22;20406;-96
2023/07/15 06:56:08;;;;;;;3.65;2.45;;;;;;;20.86;100.00;99760.81;7753624;22;20016;-95
2023/07/15 06:59:22;;;;;;;3.60;2.25;;;;;;;21.00;100.00;99765.03;7780364;22;20019;-96
2023/07/15 07:02:24;;;;;;;2.80;2.17;;;;;;;21.14;100.00;99762.34;7752479;22;20454;-96
2023/07/15 07:05:27;;;;;;;4.88;2.20;;;;;;;21.26;100.00;99763.28;7752579;22;20015;-95
2023/07/15 07:08:29;;;;;;;2.53;2.20;;;;;;;21.34;100.00;99756.97;7779518;22;20023;-96
2023/07/15 07:11:31;;;;;;;4.15;2.13;;;;;;;21.42;100.00;99756.78;7779567;22;20291;-96
2023/07/15 07:14:33;;;;;;;3.90;2.88;;;;;;;21.57;100.00;99753.84;7779611;22;20094;-95
2023/07/15 07:17:36;;;;;;;2.40;1.92;;;;;;;21.67;100.00;99754.19;7774312;22;20663;-95
2023/07/15 07:20:39;;;;;;;3.83;2.50;;;;;;;21.80;100.00;99754.09;7780091;22;20015;-96
2023/07/15 07:23:41;;;;;;;4.78;2.90;;;;;;;21.89;100.00;99750.19;7779335;22;20020;-96
2023/07/15 07:26:43;;;;;;;3.70;2.25;;;;;;;22.04;100.00;99752.50;7780165;22;20098;-96
2023/07/15 07:29:45;;;;;;;4.20;2.38;;;;;;;22.12;100.00;99754.84;7779969;22;20020;-96
2023/07/15 07:32:48;;;;;;;5.03;2.20;;;;;;;22.23;100.00;99752.56;7778719;22;20016;-96
2023/07/15 07:35:50;;;;;;;2.88;2.28;;;;;;;22.31;100.00;99749.66;7778877;22;20023;-96
2023/07/15 07:38:53;;;;;;;4.30;2.53;;;;;;;22.42;100.00;99746.31;7751851;22;20131;-96
2023/07/15 07:41:55;;;;;;;3.10;2.03;;;;;;;22.43;100.00;99747.91;7779162;22;20070;-96
2023/07/15 07:44:57;;;;;;;3.60;2.35;;;;;;;22.52;100.00;99740.53;7752419;22;20082;-96
2023/07/15 07:47:59;;;;;;;2.35;2.03;;;;;;;22.70;100.00;99750.28;7777385;22;20020;-96
2023/07/15 07:51:02;;;;;;;2.53;2.10;;;;;;;22.87;100.00;99751.31;7752121;22;20020;-96
2023/07/15 07:54:04;;;;;;;2.72;2.30;;;;;;;22.98;100.00;99755.06;7752661;22;20026;-96
2023/07/15 07:57:06;;;;;;;2.28;2.05;;;;;;;23.06;100.00;99760.06;7775872;22;20015;-96
2023/07/15 08:00:10;;;;;;;3.95;2.17;;;;;;;23.11;100.00;99756.75;7750937;22;20020;-96
2023/07/15 08:03:12;;;;;;;2.65;1.92;;;;;;;23.19;100.00;99759.88;7750363;22;20031;-96
2023/07/15 08:06:15;;;;;;;4.43;2.30;;;;;;;23.22;100.00;99766.53;7777174;22;20512;-96
2023/07/15 08:09:18;;;;;;;2.63;2.40;;;;;;;23.29;100.00;99750.63;7752434;22;20523;-96
2023/07/15 08:12:21;;;;;;;4.47;2.40;;;;;;;23.32;100.00;99748.31;7751063;22;20134;-96
2023/07/15 08:15:25;;;;;;;2.65;1.90;;;;;;;23.36;100.00;99752.16;7750842;22;20529;-95
2023/07/15 08:18:28;;;;;;;3.13;2.20;;;;;;;23.45;100.00;99747.34;7750611;22;20027;-96
2023/07/15 08:21:30;;;;;;;3.88;2.30;;;;;;;23.58;100.00;99741.09;7751357;22;20020;-96
2023/07/15 08:24:34;;;;;;;2.80;2.00;;;;;;;23.64;100.00;99743.59;7779101;22;20513;-96
2023/07/15 08:27:36;;;;;;;4.32;2.22;;;;;;;23.84;100.00;99734.59;7778791;22;20452;-96
2023/07/15 08:30:38;;;;;;;4.20;2.30;;;;;;;23.96;100.00;99739.91;7780569;22;20164;-95
2023/07/15 08:33:40;;;;;;;4.40;2.50;;;;;;;24.16;100.00;99740.38;7754840;22;20338;-96
2023/07/15 08:36:42;;;;;;;2.53;2.00;;;;;;;24.29;100.00;99747.28;7781959;22;20019;-96
2023/07/15 08:39:44;;;;;;;4.43;2.50;;;;;;;24.50;100.00;99745.94;7781297;22;20023;-96
2023/07/15 08:42:46;;;;;;;2.88;2.30;;;;;;;24.60;100.00;99761.22;7781648;22;20809;-96
2023/07/15 08:45:49;;;;;;;3.60;2.70;;;;;;;24.73;100.00;99757.50;7754117;22;20078;-96
2023/07/15 08:48:53;;;;;;;4.20;2.30;;;;;;;24.87;100.00;99766.81;7752664;22;20450;-96
2023/07/15 08:51:57;;;;;;;2.53;2.30;;;;;;;25.13;100.00;99758.31;7754007;22;20028;-96
2023/07/15 08:54:59;;;;;;;4.18;2.53;;;;;;;25.44;100.00;99768.69;7781969;22;20552;-96
2023/07/15 08:58:02;;;;;;;3.05;2.30;;;;;;;25.63;100.00;99764.00;7781678;22;20043;-96
2023/07/15 09:01:04;;;;;;;5.85;2.28;;;;;;;25.63;100.00;99770.09;7781230;22;20740;-96
2023/07/15 09:04:06;;;;;;;5.72;2.10;;;;;;;25.74;100.00;99771.91;7781136;22;20023;-96
2023/07/15 09:07:09;;;;;;;3.10;2.35;;;;;;;25.88;100.00;99769.75;7780453;22;20137;-96
2023/07/15 09:10:12;;;;;;;2.92;2.10;;;;;;;26.06;100.00;99774.03;7781089;22;20027;-96
2023/07/15 09:13:22;;;;;;;2.92;2.40;;;;;;;26.72;100.00;99778.69;7778445;22;20027;-96
2023/07/15 09:16:24;;;;;;;3.20;2.40;;;;;;;27.89;100.00;99781.81;7748573;22;20023;-96
2023/07/15 09:19:28;;;;;;;6.38;2.70;;;;;;;28.19;100.00;99778.59;7750530;22;20050;-96
2023/07/15 09:22:30;;;;;;;3.10;2.72;;;;;;;28.11;100.00;99774.53;7778288;22;20457;-96
2023/07/15 09:25:32;;;;;;;6.85;3.00;;;;;;;28.13;100.00;99769.78;7753146;22;20456;-96
2023/07/15 09:28:39;;;;;;;5.22;2.50;;;;;;;28.28;100.00;99770.94;7780675;22;20019;-96
2023/07/15 09:31:41;;;;;;;2.40;2.05;;;;;;;28.52;100.00;99782.81;7780040;22;20016;-96
2023/07/15 09:34:50;;;;;;;3.72;2.33;;;;;;;28.76;100.00;99775.19;7753042;22;20178;-96
2023/07/15 09:37:54;;;;;;;2.80;2.30;;;;;;;29.07;100.00;99774.53;7753355;22;20024;-96
2023/07/15 09:40:57;;;;;;;5.00;2.60;;;;;;;29.30;100.00;99787.41;7780214;22;20027;-96
2023/07/15 09:43:59;;;;;;;2.55;2.15;;;;;;;29.36;100.00;99797.00;7777196;22;20016;-96
2023/07/15 09:47:03;;;;;;;3.38;2.55;;;;;;;29.37;100.00;99795.97;7779723;22;20024;-96
2023/07/15 09:50:05;;;;;;;4.25;2.45;;;;;;;29.39;100.00;99793.00;7777547;22;20011;-96
2023/07/15 09:53:11;;;;;;;3.42;2.47;;;;;;;29.40;100.00;99797.28;7779947;22;20098;-96
2023/07/15 09:56:16;;;;;;;3.22;2.30;;;;;;;29.51;100.00;99809.56;7753372;22;20120;-96
2023/07/15 09:59:21;;;;;;;3.90;2.45;;;;;;;29.78;100.00;99808.56;7779754;22;20023;-96
2023/07/15 10:02:42;;;;;;;2.97;2.05;;;;;;;30.06;100.00;99815.22;7780822;22;20019;-96
2023/07/15 10:05:46;;;;;;;3.83;2.50;;;;;;;29.69;100.00;99810.97;7780039;22;20019;-96
2023/07/15 10:08:49;;;;;;;4.22;2.67;;;;;;;29.68;100.00;99825.38;7780986;22;20023;-96
2023/07/15 10:11:55;;;;;;;3.65;1.90;;;;;;;29.45;100.00;99823.19;7780403;22;20039;-96
2023/07/15 10:14:58;;;;;;;2.65;1.80;;;;;;;29.15;100.00;99824.69;7779744;22;20140;-96
2023/07/15 10:18:22;;;;;;;2.25;2.05;;;;;;;28.90;100.00;99828.03;7779900;22;20086;-96
2023/07/15 10:21:24;;;;;;;3.65;2.28;;;;;;;28.72;100.00;99832.75;7753223;22;20055;-96
2023/07/15 10:24:27;;;;;;;2.70;2.20;;;;;;;28.58;100.00;99830.78;7752175;22;20351;-96
2023/07/15 10:27:32;;;;;;;4.18;2.22;;;;;;;28.48;100.00;99853.63;7779765;22;20019;-96
2023/07/15 10:30:35;;;;;;;3.50;2.17;;;;;;;28.28;100.00;99869.44;7781738;22;20070;-96
2023/07/15 10:33:54;;;;;;;3.35;2.38;;;;;;;28.11;100.00;99875.66;7780670;22;20024;-96
2023/07/15 10:37:06;;;;;;;3.13;2.13;;;;;;;28.00;100.00;99878.47;7780039;22;20020;-96
2023/07/15 10:40:09;;;;;;;5.22;2.83;;;;;;;27.87;100.00;99887.69;7783008;22;20027;-96
2023/07/15 10:43:15;;;;;;;5.18;2.17;;;;;;;27.62;100.00;99904.94;7782565;22;20019;-96
2023/07/15 10:46:20;;;;;;;2.92;2.20;;;;;;;27.24;100.00;99896.00;7756530;22;20026;-96
2023/07/15 10:49:22;;;;;;;4.75;2.10;;;;;;;26.98;100.00;99912.63;7780637;22;20049;-95
2023/07/15 10:52:30;;;;;;;3.72;2.22;;;;;;;26.83;100.00;99921.16;7788719;22;20446;-96
2023/07/15 10:55:32;;;;;;;5.15;2.25;;;;;;;26.67;100.00;99932.63;7788793;22;20091;-96
2023/07/15 10:58:37;;;;;;;3.65;2.00;;;;;;;26.57;100.00;99936.72;7785581;22;20012;-96
2023/07/15 11:01:39;;;;;;;5.00;2.47;;;;;;;26.50;100.00;99944.00;7756235;22;20026;-96
2023/07/15 11:04:46;;;;;;;3.22;2.20;;;;;;;26.33;100.00;99957.25;7783712;22;20015;-96
2023/07/15 11:07:50;;;;;;;4.43;2.13;;;;;;;26.08;100.00;99957.59;7757214;22;20026;-96
2023/07/15 11:11:04;;;;;;;2.67;2.13;;;;;;;25.77;100.00;99975.56;7783644;22;20031;-96
2023/07/15 11:14:17;;;;;;;4.68;2.40;;;;;;;25.35;100.00;99972.31;7756019;22;20509;-94
2023/07/15 11:17:19;;;;;;;4.30;2.45;;;;;;;24.07;100.00;99967.34;7778911;22;20092;-94
2023/07/15 11:20:21;;;;;;;2.53;2.08;;;;;;;23.26;100.00;99963.16;7778444;22;20074;-93
2023/07/15 11:23:23;;;;;;;3.22;2.22;;;;;;;23.55;100.00;99976.66;7777350;22;20023;-92
2023/07/15 11:26:27;;;;;;;2.55;2.03;;;;;;;23.33;100.00;99979.75;7750938;22;20011;-93
2023/07/15 11:29:31;;;;;;;4.65;2.15;;;;;;;23.88;100.00;99975.53;7751281;22;20020;-94
2023/07/15 11:32:35;;;;;;;2.00;1.90;;;;;;;23.43;100.00;99974.75;7778959;22;20040;-93
2023/07/15 11:35:41;;;;;;;3.33;2.30;;;;;;;23.42;100.00;99978.41;7777652;22;20345;-93
2023/07/15 11:38:47;;;;;;;3.08;2.45;;;;;;;23.36;100.00;99974.00;7779608;22;20015;-93
2023/07/15 11:41:53;;;;;;;3.33;2.47;;;;;;;23.04;100.00;99970.66;7779440;22;20012;-92
2023/07/15 11:44:58;;;;;;;2.35;2.13;;;;;;;22.79;100.00;99963.53;7780305;22;20477;-92
2023/07/15 11:48:03;;;;;;;2.72;2.15;;;;;;;22.66;100.00;99962.78;7778782;22;20629;-92
2023/07/15 11:51:10;;;;;;;3.10;2.40;;;;;;;22.64;100.00;99975.41;7778189;22;20306;-93
2023/07/15 11:54:16;;;;;;;2.28;2.08;;;;;;;22.85;100.00;99967.13;7779058;22;20016;-95
2023/07/15 11:57:28;;;;;;;3.75;1.65;;;;;;;23.02;100.00;99972.69;7726205;22;20030;-92
2023/07/15 12:00:36;;;;;;;2.78;1.90;;;;;;;23.12;100.00;99973.00;7751383;22;20393;-92
2023/07/15 12:03:45;;;;;;;2.63;1.67;;;;;;;23.13;100.00;99957.97;7778702;22;20019;-94
2023/07/15 12:06:56;;;;;;;3.33;1.80;;;;;;;23.22;100.00;99965.41;7752639;22;20342;-91
2023/07/15 12:10:10;;;;;;;2.63;1.90;;;;;;;22.99;100.00;99934.34;7777517;22;20371;-93
2023/07/15 12:13:16;;;;;;;2.22;2.03;;;;;;;22.45;100.00;99934.97;7780930;22;20019;-93
2023/07/15 12:16:22;;;;;;;1.80;1.70;;;;;;;21.92;100.00;99912.31;7780960;22;20016;-91
2023/07/15 12:19:31;;;;;;;2.60;2.00;;;;;;;21.62;100.00;99898.88;7779784;22;20026;-92
2023/07/15 12:22:39;;;;;;;2.28;2.08;;;;;;;21.56;100.00;99903.16;7753734;22;20433;-93
2023/07/15 12:25:46;;;;;;;2.63;2.38;;;;;;;21.47;100.00;99909.69;7780953;22;20020;-93
2023/07/15 12:28:53;;;;;;;1.95;1.80;;;;;;;21.84;100.00;99916.03;7780423;22;20015;-93
2023/07/15 12:31:58;;;;;;;1.75;1.63;;;;;;;21.66;100.00;99921.97;7752672;22;20149;-92
2023/07/15 12:35:09;;;;;;;2.38;1.98;;;;;;;21.59;100.00;99915.09;7780304;22;20019;-92
2023/07/15 12:38:17;;;;;;;2.00;1.80;;;;;;;21.69;100.00;99905.75;7781589;22;20019;-92
2023/07/15 12:41:22;;;;;;;2.67;1.95;;;;;;;21.83;100.00;99901.22;7780559;22;20020;-91
2023/07/15 12:44:26;;;;;;;1.98;1.80;;;;;;;21.90;100.00;99885.38;7728615;22;20031;-92
2023/07/15 12:47:32;;;;;;;2.45;2.03;;;;;;;22.00;100.00;99885.72;7781152;22;20020;-92
2023/07/15 12:50:36;;;;;;;3.30;1.90;;;;;;;22.11;100.00;99878.94;7779920;22;20024;-92
2023/07/15 12:53:46;;;;;;;2.40;1.90;;;;;;;22.38;100.00;99882.25;7778699;22;20350;-92
2023/07/15 12:56:49;;;;;;;2.15;1.73;;;;;;;22.94;100.00;99880.56;7779307;22;20026;-92
2023/07/15 13:00:08;;;;;;;3.00;2.00;;;;;;;23.11;100.00;99883.47;7780447;22;20058;-92
2023/07/15 13:03:13;;;;;;;2.38;2.08;;;;;;;23.33;100.00;99876.72;7754174;22;20020;-92
2023/07/15 13:06:19;;;;;;;2.72;1.85;;;;;;;23.57;100.00;99875.00;7779815;22;20116;-93
2023/07/15 13:09:23;;;;;;;2.83;2.00;;;;;;;23.84;100.00;99864.91;7777219;22;20030;-93
2023/07/15 13:12:28;;;;;;;3.28;1.58;;;;;;;24.04;100.00;99861.19;7753210;22;20120;-93
2023/07/15 13:15:32;;;;;;;2.72;1.60;;;;;;;24.29;100.00;99856.53;7750576;22;20031;-93
2023/07/15 13:18:38;;;;;;;2.08;1.55;;;;;;;24.75;100.00;99859.47;7754323;22;20035;-93
2023/07/15 13:21:42;;;;;;;2.00;1.70;;;;;;;25.34;100.00;99876.13;7752614;22;20024;-93
2023/07/15 13:24:51;;;;;;;2.17;1.60;;;;;;;25.85;100.00;99872.81;7779945;22;20098;-93
2023/07/15 13:27:53;;;;;;;2.60;1.60;;;;;;;26.13;100.00;99859.53;7752144;22;20655;-94
2023/07/15 13:30:55;;;;;;;3.80;2.05;;;;;;;26.41;100.00;99847.25;7778936;22;20016;-94
2023/07/15 13:33:58;;;;;;;2.03;1.83;;;;;;;26.62;100.00;99832.47;7779075;22;20016;-95
2023/07/15 13:37:00;;;;;;;2.53;1.85;;;;;;;26.90;100.00;99847.44;7726313;22;20504;-95
2023/07/15 13:40:03;;;;;;;1.92;1.63;;;;;;;27.00;100.00;99852.06;7751715;22;20019;-95
2023/07/15 13:43:05;;;;;;;2.80;1.63;;;;;;;26.94;100.00;99845.09;7753250;22;20134;-95
2023/07/15 13:46:07;;;;;;;1.77;1.45;;;;;;;26.89;100.00;99845.84;7778895;22;20023;-95
2023/07/15 13:49:13;;;;;;;2.78;1.90;;;;;;;26.93;100.00;99848.78;7778768;22;20027;-95
2023/07/15 13:52:14;;;;;;;1.77;1.63;;;;;;;27.03;100.00;99830.31;7778604;22;20464;-95
2023/07/15 13:55:16;;;;;;;1.90;1.60;;;;;;;27.25;100.00;99809.91;7778840;22;20058;-95
2023/07/15 13:58:19;;;;;;;2.53;2.00;;;;;;;27.77;100.00;99807.75;7779043;22;20026;-96
2023/07/15 14:01:21;;;;;;;2.17;1.77;;;;;;;28.60;100.00;99810.03;7778862;22;20038;-96
2023/07/15 14:04:23;;;;;;;2.22;1.90;;;;;;;28.92;100.00;99801.94;7751554;22;20019;-96
2023/07/15 14:07:25;;;;;;;3.38;1.92;;;;;;;28.64;100.00;99789.78;7779604;22;20020;-96
2023/07/15 14:10:29;;;;;;;2.25;1.80;;;;;;;28.30;100.00;99782.94;7779612;22;20022;-95
2023/07/15 14:13:31;;;;;;;2.15;1.95;;;;;;;28.20;100.00;99774.06;7778303;22;20026;-96
2023/07/15 14:16:37;;;;;;;3.50;1.85;;;;;;;28.06;100.00;99779.03;7752260;22;20020;-95
2023/07/15 14:19:39;;;;;;;1.90;1.70;;;;;;;27.88;100.00;99775.72;7751714;22;20020;-96
2023/07/15 14:22:41;;;;;;;2.15;1.95;;;;;;;27.96;100.00;99774.44;7779081;22;20204;-96
2023/07/15 14:25:50;;;;;;;3.57;1.97;;;;;;;29.06;100.00;99784.41;7753972;22;20043;-96
2023/07/15 14:28:57;;;;;;;3.58;2.20;;;;;;;30.13;100.00;99773.06;7779374;22;20026;-95